sensor_id;sensor_type;location;lat;lon;timestamp;P1;durP1;ratioP1;P2;durP2;ratioP2
14169;SDS011;63889;50.596;8.690;2023-04-25T00:01:33;14.68;;;6.00;;
14169;SDS011;63889;50.596;8.690;2023-04-25T00:04:01;9.55;;;5.75;;
14169;SDS011;63889;50.596;8.690;2023-04-25T00:06:27;12.23;;;5.65;;
14169;SDS011;63889;50.596;8.690;2023-04-25T00:08:53;13.25;;;6.60;;
14169;SDS011;63889;50.596;8.690;2023-04-25T00:11:20;15.63;;;6.70;;
14169;SDS011;63889;50.596;8.690;2023-04-25T00:13:46;12.88;;;6.32;;
14169;SDS011;63889;50.596;8.690;2023-04-25T00:16:11;14.75;;;5.72;;
14169;SDS011;63889;50.596;8.690;2023-04-25T00:18:39;12.88;;;5.78;;
14169;SDS011;63889;50.596;8.690;2023-04-25T00:21:05;9.93;;;5.90;;
14169;SDS011;63889;50.596;8.690;2023-04-25T00:23:31;9.18;;;5.22;;
14169;SDS011;63889;50.596;8.690;2023-04-25T00:25:56;10.35;;;5.35;;
14169;SDS011;63889;50.596;8.690;2023-04-25T00:28:22;10.63;;;5.72;;
14169;SDS011;63889;50.596;8.690;2023-04-25T00:30:47;15.07;;;6.10;;
14169;SDS011;63889;50.596;8.690;2023-04-25T00:33:13;13.63;;;6.53;;
14169;SDS011;63889;50.596;8.690;2023-04-25T00:35:39;10.50;;;5.45;;
14169;SDS011;63889;50.596;8.690;2023-04-25T00:38:04;10.50;;;5.25;;
14169;SDS011;63889;50.596;8.690;2023-04-25T00:40:30;11.48;;;5.20;;
14169;SDS011;63889;50.596;8.690;2023-04-25T00:42:55;10.48;;;4.70;;
14169;SDS011;63889;50.596;8.690;2023-04-25T00:45:21;8.63;;;4.82;;
14169;SDS011;63889;50.596;8.690;2023-04-25T00:47:51;11.68;;;5.38;;
14169;SDS011;63889;50.596;8.690;2023-04-25T00:50:17;11.18;;;4.88;;
14169;SDS011;63889;50.596;8.690;2023-04-25T00:52:43;8.10;;;4.30;;
14169;SDS011;63889;50.596;8.690;2023-04-25T00:55:10;10.05;;;4.05;;
14169;SDS011;63889;50.596;8.690;2023-04-25T00:57:37;6.38;;;3.47;;
14169;SDS011;63889;50.596;8.690;2023-04-25T01:00:03;6.97;;;4.03;;
14169;SDS011;63889;50.596;8.690;2023-04-25T01:02:31;8.18;;;3.25;;
14169;SDS011;63889;50.596;8.690;2023-04-25T01:04:58;7.28;;;3.17;;
14169;SDS011;63889;50.596;8.690;2023-04-25T01:07:24;6.43;;;3.08;;
14169;SDS011;63889;50.596;8.690;2023-04-25T01:09:51;7.80;;;3.30;;
14169;SDS011;63889;50.596;8.690;2023-04-25T01:12:17;4.80;;;2.75;;
14169;SDS011;63889;50.596;8.690;2023-04-25T01:14:43;7.95;;;3.05;;
14169;SDS011;63889;50.596;8.690;2023-04-25T01:17:09;8.32;;;3.78;;
14169;SDS011;63889;50.596;8.690;2023-04-25T01:19:35;7.80;;;3.33;;
14169;SDS011;63889;50.596;8.690;2023-04-25T01:22:01;5.82;;;3.00;;
14169;SDS011;63889;50.596;8.690;2023-04-25T01:24:27;5.07;;;3.20;;
14169;SDS011;63889;50.596;8.690;2023-04-25T01:26:53;6.72;;;3.25;;
14169;SDS011;63889;50.596;8.690;2023-04-25T01:29:21;6.85;;;3.35;;
14169;SDS011;63889;50.596;8.690;2023-04-25T01:31:47;6.88;;;2.63;;
14169;SDS011;63889;50.596;8.690;2023-04-25T01:34:13;6.32;;;2.83;;
14169;SDS011;63889;50.596;8.690;2023-04-25T01:36:38;6.45;;;2.70;;
14169;SDS011;63889;50.596;8.690;2023-04-25T01:39:04;5.60;;;2.78;;
14169;SDS011;63889;50.596;8.690;2023-04-25T01:41:31;6.32;;;2.53;;
14169;SDS011;63889;50.596;8.690;2023-04-25T01:43:56;6.28;;;2.70;;
14169;SDS011;63889;50.596;8.690;2023-04-25T01:46:22;9.90;;;2.65;;
14169;SDS011;63889;50.596;8.690;2023-04-25T01:48:48;4.43;;;2.55;;
14169;SDS011;63889;50.596;8.690;2023-04-25T01:51:13;7.28;;;3.00;;
14169;SDS011;63889;50.596;8.690;2023-04-25T01:53:40;5.55;;;2.42;;
14169;SDS011;63889;50.596;8.690;2023-04-25T01:56:05;7.53;;;3.10;;
14169;SDS011;63889;50.596;8.690;2023-04-25T01:58:31;9.77;;;2.70;;
14169;SDS011;63889;50.596;8.690;2023-04-25T02:00:57;7.50;;;2.83;;
14169;SDS011;63889;50.596;8.690;2023-04-25T02:03:22;7.05;;;3.10;;
14169;SDS011;63889;50.596;8.690;2023-04-25T02:05:48;7.68;;;2.92;;
14169;SDS011;63889;50.596;8.690;2023-04-25T02:08:14;8.13;;;3.75;;
14169;SDS011;63889;50.596;8.690;2023-04-25T02:10:41;7.53;;;2.40;;
14169;SDS011;63889;50.596;8.690;2023-04-25T02:13:06;11.98;;;3.50;;
14169;SDS011;63889;50.596;8.690;2023-04-25T02:15:32;10.40;;;3.42;;
14169;SDS011;63889;50.596;8.690;2023-04-25T02:17:58;5.05;;;2.85;;
14169;SDS011;63889;50.596;8.690;2023-04-25T02:20:25;7.72;;;2.90;;
14169;SDS011;63889;50.596;8.690;2023-04-25T02:22:51;9.02;;;2.83;;
14169;SDS011;63889;50.596;8.690;2023-04-25T02:25:17;8.02;;;3.45;;
14169;SDS011;63889;50.596;8.690;2023-04-25T02:27:45;12.05;;;2.97;;
14169;SDS011;63889;50.596;8.690;2023-04-25T02:30:11;13.23;;;3.38;;
14169;SDS011;63889;50.596;8.690;2023-04-25T02:32:38;10.85;;;3.78;;
14169;SDS011;63889;50.596;8.690;2023-04-25T02:35:04;9.68;;;2.97;;
14169;SDS011;63889;50.596;8.690;2023-04-25T02:37:30;8.90;;;2.97;;
14169;SDS011;63889;50.596;8.690;2023-04-25T02:39:56;11.18;;;3.38;;
14169;SDS011;63889;50.596;8.690;2023-04-25T02:42:22;10.55;;;3.53;;
14169;SDS011;63889;50.596;8.690;2023-04-25T02:44:47;9.63;;;3.13;;
14169;SDS011;63889;50.596;8.690;2023-04-25T02:47:13;9.90;;;3.20;;
14169;SDS011;63889;50.596;8.690;2023-04-25T02:49:39;4.55;;;2.75;;
14169;SDS011;63889;50.596;8.690;2023-04-25T02:52:04;4.90;;;2.80;;
14169;SDS011;63889;50.596;8.690;2023-04-25T02:54:30;13.02;;;2.88;;
14169;SDS011;63889;50.596;8.690;2023-04-25T02:56:55;8.50;;;2.28;;
14169;SDS011;63889;50.596;8.690;2023-04-25T02:59:21;6.20;;;2.03;;
14169;SDS011;63889;50.596;8.690;2023-04-25T03:01:46;8.20;;;2.85;;
14169;SDS011;63889;50.596;8.690;2023-04-25T03:04:12;7.80;;;2.70;;
14169;SDS011;63889;50.596;8.690;2023-04-25T03:06:37;5.97;;;3.00;;
14169;SDS011;63889;50.596;8.690;2023-04-25T03:09:03;7.28;;;2.63;;
14169;SDS011;63889;50.596;8.690;2023-04-25T03:11:29;9.15;;;3.10;;
14169;SDS011;63889;50.596;8.690;2023-04-25T03:13:54;8.10;;;3.20;;
14169;SDS011;63889;50.596;8.690;2023-04-25T03:16:20;12.40;;;2.90;;
14169;SDS011;63889;50.596;8.690;2023-04-25T03:18:46;8.70;;;2.47;;
14169;SDS011;63889;50.596;8.690;2023-04-25T03:21:12;8.13;;;3.42;;
14169;SDS011;63889;50.596;8.690;2023-04-25T03:23:38;9.52;;;2.38;;
14169;SDS011;63889;50.596;8.690;2023-04-25T03:26:03;10.38;;;2.92;;
14169;SDS011;63889;50.596;8.690;2023-04-25T03:28:29;7.50;;;2.83;;
14169;SDS011;63889;50.596;8.690;2023-04-25T03:30:54;9.48;;;2.63;;
14169;SDS011;63889;50.596;8.690;2023-04-25T03:33:20;7.25;;;2.58;;
14169;SDS011;63889;50.596;8.690;2023-04-25T03:35:45;7.68;;;2.92;;
14169;SDS011;63889;50.596;8.690;2023-04-25T03:38:11;11.68;;;2.58;;
14169;SDS011;63889;50.596;8.690;2023-04-25T03:40:36;10.10;;;3.00;;
14169;SDS011;63889;50.596;8.690;2023-04-25T03:43:02;6.57;;;2.58;;
14169;SDS011;63889;50.596;8.690;2023-04-25T03:45:27;8.73;;;2.50;;
14169;SDS011;63889;50.596;8.690;2023-04-25T03:47:53;7.70;;;2.10;;
14169;SDS011;63889;50.596;8.690;2023-04-25T03:50:18;8.23;;;2.20;;
14169;SDS011;63889;50.596;8.690;2023-04-25T03:52:44;3.58;;;2.30;;
14169;SDS011;63889;50.596;8.690;2023-04-25T03:55:10;4.32;;;2.20;;
14169;SDS011;63889;50.596;8.690;2023-04-25T03:57:35;5.53;;;2.10;;
14169;SDS011;63889;50.596;8.690;2023-04-25T04:00:01;9.55;;;2.80;;
14169;SDS011;63889;50.596;8.690;2023-04-25T04:02:28;10.95;;;2.42;;
14169;SDS011;63889;50.596;8.690;2023-04-25T04:04:53;8.20;;;2.50;;
14169;SDS011;63889;50.596;8.690;2023-04-25T04:07:20;9.05;;;2.70;;
14169;SDS011;63889;50.596;8.690;2023-04-25T04:09:46;14.32;;;3.10;;
14169;SDS011;63889;50.596;8.690;2023-04-25T04:12:11;9.77;;;2.55;;
14169;SDS011;63889;50.596;8.690;2023-04-25T04:14:37;5.63;;;1.98;;
14169;SDS011;63889;50.596;8.690;2023-04-25T04:17:02;5.80;;;2.13;;
14169;SDS011;63889;50.596;8.690;2023-04-25T04:19:28;7.85;;;2.30;;
14169;SDS011;63889;50.596;8.690;2023-04-25T04:21:54;6.38;;;2.83;;
14169;SDS011;63889;50.596;8.690;2023-04-25T04:24:19;3.08;;;1.95;;
14169;SDS011;63889;50.596;8.690;2023-04-25T04:26:45;5.63;;;2.50;;
14169;SDS011;63889;50.596;8.690;2023-04-25T04:29:10;7.55;;;2.58;;
14169;SDS011;63889;50.596;8.690;2023-04-25T04:31:36;4.43;;;2.17;;
14169;SDS011;63889;50.596;8.690;2023-04-25T04:34:02;7.00;;;2.40;;
14169;SDS011;63889;50.596;8.690;2023-04-25T04:36:28;6.43;;;2.55;;
14169;SDS011;63889;50.596;8.690;2023-04-25T04:38:54;7.93;;;2.33;;
14169;SDS011;63889;50.596;8.690;2023-04-25T04:41:21;9.27;;;2.85;;
14169;SDS011;63889;50.596;8.690;2023-04-25T04:43:47;9.82;;;2.30;;
14169;SDS011;63889;50.596;8.690;2023-04-25T04:46:12;5.22;;;2.63;;
14169;SDS011;63889;50.596;8.690;2023-04-25T04:48:38;5.43;;;2.25;;
14169;SDS011;63889;50.596;8.690;2023-04-25T04:51:05;5.95;;;2.67;;
14169;SDS011;63889;50.596;8.690;2023-04-25T04:53:31;7.40;;;3.15;;
14169;SDS011;63889;50.596;8.690;2023-04-25T04:55:57;11.63;;;3.58;;
14169;SDS011;63889;50.596;8.690;2023-04-25T04:58:22;5.95;;;2.85;;
14169;SDS011;63889;50.596;8.690;2023-04-25T05:00:48;6.75;;;3.00;;
14169;SDS011;63889;50.596;8.690;2023-04-25T05:03:14;10.52;;;2.60;;
14169;SDS011;63889;50.596;8.690;2023-04-25T05:05:40;5.53;;;2.53;;
14169;SDS011;63889;50.596;8.690;2023-04-25T05:08:06;7.90;;;2.75;;
14169;SDS011;63889;50.596;8.690;2023-04-25T05:10:32;4.90;;;2.75;;
14169;SDS011;63889;50.596;8.690;2023-04-25T05:12:57;6.07;;;2.70;;
14169;SDS011;63889;50.596;8.690;2023-04-25T05:15:23;6.72;;;2.83;;
14169;SDS011;63889;50.596;8.690;2023-04-25T05:17:48;11.93;;;3.20;;
14169;SDS011;63889;50.596;8.690;2023-04-25T05:20:14;10.05;;;3.17;;
14169;SDS011;63889;50.596;8.690;2023-04-25T05:22:40;7.70;;;2.88;;
14169;SDS011;63889;50.596;8.690;2023-04-25T05:25:07;10.25;;;2.92;;
14169;SDS011;63889;50.596;8.690;2023-04-25T05:27:33;4.97;;;2.80;;
14169;SDS011;63889;50.596;8.690;2023-04-25T05:29:59;5.90;;;2.88;;
14169;SDS011;63889;50.596;8.690;2023-04-25T05:32:24;6.28;;;2.92;;
14169;SDS011;63889;50.596;8.690;2023-04-25T05:34:50;4.85;;;2.55;;
14169;SDS011;63889;50.596;8.690;2023-04-25T05:37:16;11.10;;;3.38;;
14169;SDS011;63889;50.596;8.690;2023-04-25T05:39:42;8.50;;;3.10;;
14169;SDS011;63889;50.596;8.690;2023-04-25T05:42:08;5.65;;;2.53;;
14169;SDS011;63889;50.596;8.690;2023-04-25T05:44:33;8.88;;;3.58;;
14169;SDS011;63889;50.596;8.690;2023-04-25T05:46:59;7.80;;;2.97;;
14169;SDS011;63889;50.596;8.690;2023-04-25T05:49:24;8.88;;;3.65;;
14169;SDS011;63889;50.596;8.690;2023-04-25T05:51:50;7.72;;;3.25;;
14169;SDS011;63889;50.596;8.690;2023-04-25T05:54:15;7.70;;;3.22;;
14169;SDS011;63889;50.596;8.690;2023-04-25T05:56:41;6.57;;;2.78;;
14169;SDS011;63889;50.596;8.690;2023-04-25T05:59:06;10.77;;;3.22;;
14169;SDS011;63889;50.596;8.690;2023-04-25T06:01:32;8.23;;;2.55;;
14169;SDS011;63889;50.596;8.690;2023-04-25T06:03:58;8.57;;;3.80;;
14169;SDS011;63889;50.596;8.690;2023-04-25T06:06:23;9.23;;;3.17;;
14169;SDS011;63889;50.596;8.690;2023-04-25T06:08:49;11.55;;;3.25;;
14169;SDS011;63889;50.596;8.690;2023-04-25T06:11:15;6.70;;;3.22;;
14169;SDS011;63889;50.596;8.690;2023-04-25T06:13:40;10.65;;;3.20;;
14169;SDS011;63889;50.596;8.690;2023-04-25T06:16:06;12.25;;;3.67;;
14169;SDS011;63889;50.596;8.690;2023-04-25T06:18:32;8.27;;;3.10;;
14169;SDS011;63889;50.596;8.690;2023-04-25T06:20:57;12.52;;;3.63;;
14169;SDS011;63889;50.596;8.690;2023-04-25T06:23:23;12.20;;;3.38;;
14169;SDS011;63889;50.596;8.690;2023-04-25T06:25:48;7.97;;;3.63;;
14169;SDS011;63889;50.596;8.690;2023-04-25T06:28:14;7.68;;;3.72;;
14169;SDS011;63889;50.596;8.690;2023-04-25T06:30:40;8.95;;;3.30;;
14169;SDS011;63889;50.596;8.690;2023-04-25T06:33:05;6.95;;;3.08;;
14169;SDS011;63889;50.596;8.690;2023-04-25T06:35:31;5.25;;;2.92;;
14169;SDS011;63889;50.596;8.690;2023-04-25T06:37:56;19.17;;;7.45;;
14169;SDS011;63889;50.596;8.690;2023-04-25T06:40:22;14.60;;;6.22;;
14169;SDS011;63889;50.596;8.690;2023-04-25T06:42:47;14.10;;;6.85;;
14169;SDS011;63889;50.596;8.690;2023-04-25T06:45:13;14.18;;;4.30;;
14169;SDS011;63889;50.596;8.690;2023-04-25T06:47:38;7.40;;;3.30;;
14169;SDS011;63889;50.596;8.690;2023-04-25T06:50:04;12.32;;;3.90;;
14169;SDS011;63889;50.596;8.690;2023-04-25T06:52:30;10.95;;;4.13;;
14169;SDS011;63889;50.596;8.690;2023-04-25T06:54:56;9.75;;;3.63;;
14169;SDS011;63889;50.596;8.690;2023-04-25T06:57:21;11.15;;;3.63;;
14169;SDS011;63889;50.596;8.690;2023-04-25T06:59:47;8.55;;;3.70;;
14169;SDS011;63889;50.596;8.690;2023-04-25T07:02:12;8.68;;;3.25;;
14169;SDS011;63889;50.596;8.690;2023-04-25T07:04:38;13.85;;;4.18;;
14169;SDS011;63889;50.596;8.690;2023-04-25T07:07:03;12.32;;;3.67;;
14169;SDS011;63889;50.596;8.690;2023-04-25T07:09:29;9.00;;;3.90;;
14169;SDS011;63889;50.596;8.690;2023-04-25T07:11:55;8.45;;;3.70;;
14169;SDS011;63889;50.596;8.690;2023-04-25T07:14:21;7.35;;;3.63;;
14169;SDS011;63889;50.596;8.690;2023-04-25T07:16:47;8.57;;;3.80;;
14169;SDS011;63889;50.596;8.690;2023-04-25T07:19:13;7.78;;;3.30;;
14169;SDS011;63889;50.596;8.690;2023-04-25T07:21:38;8.85;;;3.45;;
14169;SDS011;63889;50.596;8.690;2023-04-25T07:24:04;8.20;;;3.50;;
14169;SDS011;63889;50.596;8.690;2023-04-25T07:26:30;5.90;;;2.88;;
14169;SDS011;63889;50.596;8.690;2023-04-25T07:28:55;10.73;;;4.13;;
14169;SDS011;63889;50.596;8.690;2023-04-25T07:31:21;7.25;;;2.92;;
14169;SDS011;63889;50.596;8.690;2023-04-25T07:33:47;6.57;;;3.25;;
14169;SDS011;63889;50.596;8.690;2023-04-25T07:36:13;9.23;;;2.50;;
14169;SDS011;63889;50.596;8.690;2023-04-25T07:38:40;8.43;;;2.80;;
14169;SDS011;63889;50.596;8.690;2023-04-25T07:41:05;4.70;;;2.47;;
14169;SDS011;63889;50.596;8.690;2023-04-25T07:43:31;5.82;;;2.35;;
14169;SDS011;63889;50.596;8.690;2023-04-25T07:45:57;5.00;;;2.80;;
14169;SDS011;63889;50.596;8.690;2023-04-25T07:48:22;12.25;;;2.85;;
14169;SDS011;63889;50.596;8.690;2023-04-25T07:50:48;6.32;;;2.78;;
14169;SDS011;63889;50.596;8.690;2023-04-25T07:53:14;8.60;;;2.95;;
14169;SDS011;63889;50.596;8.690;2023-04-25T07:55:39;7.68;;;3.05;;
14169;SDS011;63889;50.596;8.690;2023-04-25T07:58:05;6.60;;;2.78;;
14169;SDS011;63889;50.596;8.690;2023-04-25T08:00:35;8.77;;;2.60;;
14169;SDS011;63889;50.596;8.690;2023-04-25T08:03:00;7.25;;;3.08;;
14169;SDS011;63889;50.596;8.690;2023-04-25T08:05:26;5.50;;;2.42;;
14169;SDS011;63889;50.596;8.690;2023-04-25T08:07:51;5.30;;;2.42;;
14169;SDS011;63889;50.596;8.690;2023-04-25T08:10:17;4.57;;;2.67;;
14169;SDS011;63889;50.596;8.690;2023-04-25T08:12:43;6.72;;;2.70;;
14169;SDS011;63889;50.596;8.690;2023-04-25T08:15:08;8.38;;;2.78;;
14169;SDS011;63889;50.596;8.690;2023-04-25T08:17:34;3.85;;;2.17;;
14169;SDS011;63889;50.596;8.690;2023-04-25T08:20:00;7.38;;;2.33;;
14169;SDS011;63889;50.596;8.690;2023-04-25T08:22:26;3.97;;;2.33;;
14169;SDS011;63889;50.596;8.690;2023-04-25T08:24:51;6.90;;;2.00;;
14169;SDS011;63889;50.596;8.690;2023-04-25T08:27:18;10.93;;;2.58;;
14169;SDS011;63889;50.596;8.690;2023-04-25T08:29:43;5.40;;;2.53;;
14169;SDS011;63889;50.596;8.690;2023-04-25T08:32:09;5.70;;;2.88;;
14169;SDS011;63889;50.596;8.690;2023-04-25T08:34:35;5.00;;;2.60;;
14169;SDS011;63889;50.596;8.690;2023-04-25T08:37:01;5.43;;;2.15;;
14169;SDS011;63889;50.596;8.690;2023-04-25T08:39:29;6.00;;;2.53;;
14169;SDS011;63889;50.596;8.690;2023-04-25T08:41:55;5.55;;;2.45;;
14169;SDS011;63889;50.596;8.690;2023-04-25T08:44:21;6.60;;;3.53;;
14169;SDS011;63889;50.596;8.690;2023-04-25T08:46:48;5.15;;;1.95;;
14169;SDS011;63889;50.596;8.690;2023-04-25T08:49:14;6.60;;;1.58;;
14169;SDS011;63889;50.596;8.690;2023-04-25T08:51:45;6.68;;;1.60;;
14169;SDS011;63889;50.596;8.690;2023-04-25T08:54:12;5.32;;;1.40;;
14169;SDS011;63889;50.596;8.690;2023-04-25T08:56:39;4.63;;;1.38;;
14169;SDS011;63889;50.596;8.690;2023-04-25T08:59:08;3.38;;;1.38;;
14169;SDS011;63889;50.596;8.690;2023-04-25T09:01:35;5.32;;;1.10;;
14169;SDS011;63889;50.596;8.690;2023-04-25T09:04:01;4.95;;;1.30;;
14169;SDS011;63889;50.596;8.690;2023-04-25T09:06:28;8.88;;;1.75;;
14169;SDS011;63889;50.596;8.690;2023-04-25T09:08:55;2.90;;;1.00;;
14169;SDS011;63889;50.596;8.690;2023-04-25T09:11:30;6.07;;;1.65;;
14169;SDS011;63889;50.596;8.690;2023-04-25T09:14:12;3.40;;;1.20;;
14169;SDS011;63889;50.596;8.690;2023-04-25T09:19:22;4.28;;;1.50;;
14169;SDS011;63889;50.596;8.690;2023-04-25T09:21:50;5.43;;;1.25;;
14169;SDS011;63889;50.596;8.690;2023-04-25T09:24:16;6.45;;;1.35;;
14169;SDS011;63889;50.596;8.690;2023-04-25T09:26:54;3.90;;;1.40;;
14169;SDS011;63889;50.596;8.690;2023-04-25T09:29:20;5.03;;;1.40;;
14169;SDS011;63889;50.596;8.690;2023-04-25T09:32:09;7.78;;;1.52;;
14169;SDS011;63889;50.596;8.690;2023-04-25T09:34:41;4.78;;;1.80;;
14169;SDS011;63889;50.596;8.690;2023-04-25T09:37:09;3.50;;;1.42;;
14169;SDS011;63889;50.596;8.690;2023-04-25T09:39:36;4.10;;;1.02;;
14169;SDS011;63889;50.596;8.690;2023-04-25T09:42:02;9.10;;;1.48;;
14169;SDS011;63889;50.596;8.690;2023-04-25T09:44:28;3.10;;;0.90;;
14169;SDS011;63889;50.596;8.690;2023-04-25T09:46:54;5.78;;;1.48;;
14169;SDS011;63889;50.596;8.690;2023-04-25T09:49:20;5.32;;;1.58;;
14169;SDS011;63889;50.596;8.690;2023-04-25T09:51:58;6.07;;;1.58;;
14169;SDS011;63889;50.596;8.690;2023-04-25T09:54:25;4.65;;;1.40;;
14169;SDS011;63889;50.596;8.690;2023-04-25T09:56:51;9.50;;;1.75;;
14169;SDS011;63889;50.596;8.690;2023-04-25T09:59:21;5.38;;;1.48;;
14169;SDS011;63889;50.596;8.690;2023-04-25T10:01:50;4.80;;;2.08;;
14169;SDS011;63889;50.596;8.690;2023-04-25T10:04:21;6.47;;;1.40;;
14169;SDS011;63889;50.596;8.690;2023-04-25T10:06:49;8.75;;;3.15;;
14169;SDS011;63889;50.596;8.690;2023-04-25T10:09:17;2.10;;;1.40;;
14169;SDS011;63889;50.596;8.690;2023-04-25T10:11:46;10.02;;;1.73;;
14169;SDS011;63889;50.596;8.690;2023-04-25T10:14:15;6.43;;;1.63;;
14169;SDS011;63889;50.596;8.690;2023-04-25T10:16:42;6.78;;;1.70;;
14169;SDS011;63889;50.596;8.690;2023-04-25T10:19:08;6.10;;;1.27;;
14169;SDS011;63889;50.596;8.690;2023-04-25T10:21:34;2.75;;;1.20;;
14169;SDS011;63889;50.596;8.690;2023-04-25T10:24:11;1.95;;;1.35;;
14169;SDS011;63889;50.596;8.690;2023-04-25T10:26:37;3.67;;;1.40;;
14169;SDS011;63889;50.596;8.690;2023-04-25T10:29:03;6.05;;;1.52;;
14169;SDS011;63889;50.596;8.690;2023-04-25T10:31:29;5.40;;;1.27;;
14169;SDS011;63889;50.596;8.690;2023-04-25T10:33:55;5.40;;;1.60;;
14169;SDS011;63889;50.596;8.690;2023-04-25T10:36:22;10.75;;;1.80;;
14169;SDS011;63889;50.596;8.690;2023-04-25T10:38:48;4.35;;;1.23;;
14169;SDS011;63889;50.596;8.690;2023-04-25T10:41:15;6.63;;;1.40;;
14169;SDS011;63889;50.596;8.690;2023-04-25T10:43:44;6.50;;;1.55;;
14169;SDS011;63889;50.596;8.690;2023-04-25T10:48:52;6.97;;;1.30;;
14169;SDS011;63889;50.596;8.690;2023-04-25T10:51:23;4.95;;;2.17;;
14169;SDS011;63889;50.596;8.690;2023-04-25T10:56:38;5.25;;;1.40;;
14169;SDS011;63889;50.596;8.690;2023-04-25T10:59:16;7.22;;;1.73;;
14169;SDS011;63889;50.596;8.690;2023-04-25T11:01:48;5.43;;;1.55;;
14169;SDS011;63889;50.596;8.690;2023-04-25T11:04:21;7.13;;;1.50;;
14169;SDS011;63889;50.596;8.690;2023-04-25T11:06:55;8.32;;;1.77;;
14169;SDS011;63889;50.596;8.690;2023-04-25T11:09:27;5.72;;;1.45;;
14169;SDS011;63889;50.596;8.690;2023-04-25T11:11:57;5.72;;;1.70;;
14169;SDS011;63889;50.596;8.690;2023-04-25T11:14:24;6.78;;;1.70;;
14169;SDS011;63889;50.596;8.690;2023-04-25T11:16:54;9.73;;;1.77;;
14169;SDS011;63889;50.596;8.690;2023-04-25T11:19:20;7.20;;;2.17;;
14169;SDS011;63889;50.596;8.690;2023-04-25T11:21:50;7.28;;;1.60;;
14169;SDS011;63889;50.596;8.690;2023-04-25T11:24:19;7.25;;;1.77;;
14169;SDS011;63889;50.596;8.690;2023-04-25T11:26:48;8.40;;;2.08;;
14169;SDS011;63889;50.596;8.690;2023-04-25T11:29:13;8.07;;;2.03;;
14169;SDS011;63889;50.596;8.690;2023-04-25T11:31:42;3.20;;;1.90;;
14169;SDS011;63889;50.596;8.690;2023-04-25T11:34:10;11.20;;;2.07;;
14169;SDS011;63889;50.596;8.690;2023-04-25T11:36:35;5.90;;;2.03;;
14169;SDS011;63889;50.596;8.690;2023-04-25T11:39:03;6.72;;;1.77;;
14169;SDS011;63889;50.596;8.690;2023-04-25T11:41:30;6.85;;;1.67;;
14169;SDS011;63889;50.596;8.690;2023-04-25T11:43:56;8.25;;;2.05;;
14169;SDS011;63889;50.596;8.690;2023-04-25T11:46:22;12.52;;;2.10;;
14169;SDS011;63889;50.596;8.690;2023-04-25T11:48:47;5.57;;;1.80;;
14169;SDS011;63889;50.596;8.690;2023-04-25T11:51:15;5.22;;;2.13;;
14169;SDS011;63889;50.596;8.690;2023-04-25T11:53:41;4.13;;;1.60;;
14169;SDS011;63889;50.596;8.690;2023-04-25T11:56:09;6.63;;;1.90;;
14169;SDS011;63889;50.596;8.690;2023-04-25T11:58:55;8.35;;;1.70;;
14169;SDS011;63889;50.596;8.690;2023-04-25T12:01:25;7.30;;;1.95;;
14169;SDS011;63889;50.596;8.690;2023-04-25T12:03:57;3.83;;;1.90;;
14169;SDS011;63889;50.596;8.690;2023-04-25T12:06:29;6.05;;;2.08;;
14169;SDS011;63889;50.596;8.690;2023-04-25T12:09:06;5.80;;;1.92;;
14169;SDS011;63889;50.596;8.690;2023-04-25T12:11:40;6.15;;;1.70;;
14169;SDS011;63889;50.596;8.690;2023-04-25T12:14:23;6.47;;;1.83;;
14169;SDS011;63889;50.596;8.690;2023-04-25T12:16:51;9.00;;;1.75;;
14169;SDS011;63889;50.596;8.690;2023-04-25T12:19:19;6.15;;;2.05;;
14169;SDS011;63889;50.596;8.690;2023-04-25T12:21:46;7.13;;;1.73;;
14169;SDS011;63889;50.596;8.690;2023-04-25T12:24:13;5.70;;;1.70;;
14169;SDS011;63889;50.596;8.690;2023-04-25T12:27:16;4.23;;;2.10;;
14169;SDS011;63889;50.596;8.690;2023-04-25T12:29:34;6.20;;;1.90;;
14169;SDS011;63889;50.596;8.690;2023-04-25T12:32:00;7.38;;;2.15;;
14169;SDS011;63889;50.596;8.690;2023-04-25T12:34:28;4.63;;;2.10;;
14169;SDS011;63889;50.596;8.690;2023-04-25T12:36:56;4.90;;;1.80;;
14169;SDS011;63889;50.596;8.690;2023-04-25T12:39:23;12.43;;;3.17;;
14169;SDS011;63889;50.596;8.690;2023-04-25T12:41:50;5.65;;;1.70;;
14169;SDS011;63889;50.596;8.690;2023-04-25T12:44:18;3.95;;;1.70;;
14169;SDS011;63889;50.596;8.690;2023-04-25T12:46:44;6.13;;;2.08;;
14169;SDS011;63889;50.596;8.690;2023-04-25T12:49:10;7.78;;;1.67;;
14169;SDS011;63889;50.596;8.690;2023-04-25T12:51:36;5.13;;;1.70;;
14169;SDS011;63889;50.596;8.690;2023-04-25T12:54:03;5.57;;;2.00;;
14169;SDS011;63889;50.596;8.690;2023-04-25T12:56:29;5.05;;;1.80;;
14169;SDS011;63889;50.596;8.690;2023-04-25T12:58:56;6.45;;;1.50;;
14169;SDS011;63889;50.596;8.690;2023-04-25T13:01:22;13.15;;;2.67;;
14169;SDS011;63889;50.596;8.690;2023-04-25T13:03:48;6.55;;;1.50;;
14169;SDS011;63889;50.596;8.690;2023-04-25T13:06:13;4.72;;;1.63;;
14169;SDS011;63889;50.596;8.690;2023-04-25T13:08:39;4.20;;;2.00;;
14169;SDS011;63889;50.596;8.690;2023-04-25T13:11:06;6.22;;;1.90;;
14169;SDS011;63889;50.596;8.690;2023-04-25T13:13:31;3.67;;;1.70;;
14169;SDS011;63889;50.596;8.690;2023-04-25T13:15:57;7.78;;;2.10;;
14169;SDS011;63889;50.596;8.690;2023-04-25T13:18:23;9.45;;;2.45;;
14169;SDS011;63889;50.596;8.690;2023-04-25T13:20:52;5.65;;;1.80;;
14169;SDS011;63889;50.596;8.690;2023-04-25T13:23:18;8.10;;;2.45;;
14169;SDS011;63889;50.596;8.690;2023-04-25T13:25:45;5.03;;;1.40;;
14169;SDS011;63889;50.596;8.690;2023-04-25T13:28:10;7.55;;;1.50;;
14169;SDS011;63889;50.596;8.690;2023-04-25T13:30:36;6.03;;;1.73;;
14169;SDS011;63889;50.596;8.690;2023-04-25T13:33:02;6.45;;;2.00;;
14169;SDS011;63889;50.596;8.690;2023-04-25T13:35:28;6.82;;;1.42;;
14169;SDS011;63889;50.596;8.690;2023-04-25T13:37:55;6.55;;;1.35;;
14169;SDS011;63889;50.596;8.690;2023-04-25T13:40:21;3.95;;;1.35;;
14169;SDS011;63889;50.596;8.690;2023-04-25T13:42:46;4.72;;;1.15;;
14169;SDS011;63889;50.596;8.690;2023-04-25T13:45:12;4.55;;;1.48;;
14169;SDS011;63889;50.596;8.690;2023-04-25T13:47:38;4.40;;;1.20;;
14169;SDS011;63889;50.596;8.690;2023-04-25T13:50:03;7.28;;;1.60;;
14169;SDS011;63889;50.596;8.690;2023-04-25T13:52:30;9.00;;;1.63;;
14169;SDS011;63889;50.596;8.690;2023-04-25T13:54:56;5.45;;;2.08;;
14169;SDS011;63889;50.596;8.690;2023-04-25T13:57:22;5.30;;;1.67;;
14169;SDS011;63889;50.596;8.690;2023-04-25T13:59:50;6.05;;;1.40;;
14169;SDS011;63889;50.596;8.690;2023-04-25T14:02:16;4.50;;;1.20;;
14169;SDS011;63889;50.596;8.690;2023-04-25T14:04:41;6.43;;;1.38;;
14169;SDS011;63889;50.596;8.690;2023-04-25T14:07:07;8.65;;;1.70;;
14169;SDS011;63889;50.596;8.690;2023-04-25T14:09:33;6.82;;;1.70;;
14169;SDS011;63889;50.596;8.690;2023-04-25T14:11:59;3.80;;;1.38;;
14169;SDS011;63889;50.596;8.690;2023-04-25T14:14:25;3.50;;;1.60;;
14169;SDS011;63889;50.596;8.690;2023-04-25T14:16:50;3.03;;;1.73;;
14169;SDS011;63889;50.596;8.690;2023-04-25T14:19:18;3.00;;;1.25;;
14169;SDS011;63889;50.596;8.690;2023-04-25T14:21:45;4.80;;;1.20;;
14169;SDS011;63889;50.596;8.690;2023-04-25T14:24:11;5.85;;;1.58;;
14169;SDS011;63889;50.596;8.690;2023-04-25T14:26:37;6.32;;;1.88;;
14169;SDS011;63889;50.596;8.690;2023-04-25T14:29:04;3.38;;;1.20;;
14169;SDS011;63889;50.596;8.690;2023-04-25T14:31:30;4.63;;;1.55;;
14169;SDS011;63889;50.596;8.690;2023-04-25T14:33:56;4.55;;;1.50;;
14169;SDS011;63889;50.596;8.690;2023-04-25T14:36:22;2.65;;;1.33;;
14169;SDS011;63889;50.596;8.690;2023-04-25T14:38:47;4.75;;;1.65;;
14169;SDS011;63889;50.596;8.690;2023-04-25T14:41:14;4.38;;;1.23;;
14169;SDS011;63889;50.596;8.690;2023-04-25T14:43:40;5.82;;;2.08;;
14169;SDS011;63889;50.596;8.690;2023-04-25T14:46:06;5.97;;;1.55;;
14169;SDS011;63889;50.596;8.690;2023-04-25T14:48:32;1.48;;;1.00;;
14169;SDS011;63889;50.596;8.690;2023-04-25T14:50:58;4.30;;;1.30;;